EHBK/MST METAR and TAF weather

Enter ICAO airport designator
Station Type Date Time Source
EHBK METAR 2019/12/06 03:55 UTC NOAA

EHBK 060355Z AUTO 21020KT 9999 NSC 02/M01 Q1014


Station Type Date Time Source
EHBK Decoded METAR 2019/12/06 03:55 UTC NOAA

Maastricht Airport Zuid Limburg, Netherlands (EHBK) 50-55N 005-47E 116M
Dec 05, 2019 - 10:55 PM EST / 2019.12.06 0355 UTC
Wind: from the SSW (210 degrees) at 23 MPH (20 KT):0
Visibility: greater than 7 mile(s):0
Temperature: 35 F (2 C)
Windchill: 23 F (-5 C):1
Dew Point: 30 F (-1 C)
Relative Humidity: 80%
Pressure (altimeter): 29.94 in. Hg (1014 hPa)
ob: EHBK 060355Z AUTO 21020KT 9999 NSC 02/M01 Q1014
cycle: 4

Station Type Date Time Source
EHBK TAF 2019/12/05 18:27 UTC NOAA

TAF EHBK 051721Z 0518/0624 19010KT 3500 BR BKN006
BECMG 0523/0602 22015G25KT 5000 BKN012
BECMG 0606/0609 4000 RADZ BKN006
BECMG 0612/0615 7000 -DZ
TEMPO 0615/0621 2500 DZ
TEMPO 0621/0624 5000 -SHRA SCT008 SCT022CB

Example: see airport list